createdAt,value
2019-03-18T00:00:32.282Z,13.50
2019-03-18T00:01:41.175Z,13.46
2019-03-18T00:02:49.562Z,13.29
2019-03-18T00:03:57.982Z,13.23
2019-03-18T00:05:06.793Z,13.23
2019-03-18T00:06:16.270Z,13.22
2019-03-18T00:07:24.430Z,13.18
2019-03-18T00:08:32.629Z,13.14
2019-03-18T00:09:41.265Z,13.10
2019-03-18T00:10:49.710Z,13.11
2019-03-18T00:11:58.142Z,13.11
2019-03-18T00:13:06.496Z,13.11
2019-03-18T00:14:14.729Z,13.05
2019-03-18T00:15:23.433Z,13.02
2019-03-18T00:16:31.655Z,12.97
2019-03-18T00:17:40.032Z,13.01
2019-03-18T00:18:48.557Z,12.98
2019-03-18T00:19:56.613Z,12.98
2019-03-18T00:21:06.211Z,12.95
2019-03-18T00:22:14.371Z,12.91
2019-03-18T00:23:22.845Z,12.87
2019-03-18T00:24:31.139Z,12.84
2019-03-18T00:25:39.331Z,12.80
2019-03-18T00:26:48.292Z,12.80
2019-03-18T00:27:56.312Z,12.69
2019-03-18T00:29:04.521Z,12.69
2019-03-18T00:30:20.102Z,12.70
2019-03-18T00:31:28.614Z,12.68
2019-03-18T00:32:36.937Z,12.70
2019-03-18T00:33:45.124Z,12.62
2019-03-18T00:34:53.361Z,12.61
2019-03-18T00:36:01.759Z,12.58
2019-03-18T00:37:09.901Z,12.58
2019-03-18T00:38:18.202Z,12.58
2019-03-18T00:39:26.660Z,12.59
2019-03-18T00:40:34.921Z,12.45
2019-03-18T00:41:43.241Z,12.46
2019-03-18T00:42:51.496Z,12.47
2019-03-18T00:43:59.683Z,12.47
2019-03-18T00:45:14.587Z,12.35
2019-03-18T00:46:19.067Z,12.22
2019-03-18T00:47:26.987Z,12.20
2019-03-18T00:48:35.139Z,12.17
2019-03-18T00:49:43.286Z,12.17
2019-03-18T00:50:51.196Z,12.19
2019-03-18T00:51:59.445Z,12.23
2019-03-18T00:53:07.441Z,12.26
2019-03-18T00:54:15.482Z,12.28
2019-03-18T00:55:23.788Z,12.23
2019-03-18T00:56:31.789Z,12.23
2019-03-18T00:57:39.939Z,12.24
2019-03-18T00:58:47.912Z,12.08
2019-03-18T00:59:55.824Z,11.80
2019-03-18T01:01:03.968Z,11.66
2019-03-18T01:02:12.103Z,11.59
2019-03-18T01:03:20.049Z,11.51
2019-03-18T01:04:28.167Z,11.41
2019-03-18T01:05:36.601Z,11.38
2019-03-18T01:06:44.523Z,11.36
2019-03-18T01:07:52.687Z,11.29
2019-03-18T01:09:01.194Z,11.33
2019-03-18T01:10:15.568Z,11.29
2019-03-18T01:11:23.913Z,11.20
2019-03-18T01:12:32.181Z,11.13
2019-03-18T01:13:40.634Z,11.14
2019-03-18T01:14:48.898Z,11.24
2019-03-18T01:15:56.860Z,11.17
2019-03-18T01:17:04.810Z,10.96
2019-03-18T01:18:13.136Z,10.82
2019-03-18T01:19:21.079Z,10.77
2019-03-18T01:20:29.335Z,10.61
2019-03-18T01:21:37.367Z,10.45
2019-03-18T01:22:45.906Z,10.49
2019-03-18T01:23:53.981Z,10.63
2019-03-18T01:25:02.430Z,10.73
2019-03-18T01:26:10.346Z,10.81
2019-03-18T01:27:18.219Z,10.87
2019-03-18T01:28:26.477Z,10.75
2019-03-18T01:29:34.406Z,10.72
2019-03-18T01:30:42.510Z,10.77
2019-03-18T01:31:50.656Z,10.61
2019-03-18T01:32:58.987Z,10.63
2019-03-18T01:34:07.162Z,10.65
2019-03-18T01:35:15.304Z,10.67
2019-03-18T01:36:23.556Z,10.72
2019-03-18T01:37:31.997Z,10.60
2019-03-18T01:38:40.039Z,10.66
2019-03-18T01:39:48.203Z,10.71
2019-03-18T01:40:56.349Z,10.72
2019-03-18T01:42:04.602Z,10.74
2019-03-18T01:43:12.888Z,10.74
2019-03-18T01:44:20.822Z,10.73
2019-03-18T01:45:40.151Z,10.74
2019-03-18T01:46:38.925Z,10.82
2019-03-18T01:47:47.006Z,10.84
2019-03-18T01:48:54.942Z,10.86
2019-03-18T01:50:02.968Z,10.90
2019-03-18T01:51:11.120Z,10.91
2019-03-18T01:52:19.405Z,10.89
2019-03-18T01:53:27.485Z,10.51
2019-03-18T01:54:35.413Z,10.21
2019-03-18T01:55:43.483Z,10.10
2019-03-18T01:56:51.392Z,10.22
2019-03-18T01:57:59.451Z,10.31
2019-03-18T01:59:07.516Z,10.33
2019-03-18T02:00:18.575Z,10.24
2019-03-18T02:01:26.565Z,10.32
2019-03-18T02:02:34.641Z,10.32
2019-03-18T02:03:42.582Z,10.35
2019-03-18T02:04:50.832Z,10.33
2019-03-18T02:05:58.913Z,10.24
2019-03-18T02:07:06.898Z,10.21
2019-03-18T02:08:15.209Z,10.15
2019-03-18T02:09:23.459Z,10.08
2019-03-18T02:10:31.459Z,10.10
2019-03-18T02:11:39.498Z,10.15
2019-03-18T02:12:47.641Z,10.26
2019-03-18T02:13:55.768Z,10.29
2019-03-18T02:15:03.893Z,10.10
2019-03-18T02:16:12.193Z,10.09
2019-03-18T02:17:20.134Z,10.14
2019-03-18T02:18:28.472Z,10.25
2019-03-18T02:19:36.492Z,10.33
2019-03-18T02:20:44.586Z,10.39
2019-03-18T02:21:52.570Z,10.38
2019-03-18T02:23:00.805Z,10.21
2019-03-18T02:24:09.298Z,10.24
2019-03-18T02:25:17.478Z,10.30
2019-03-18T02:26:25.753Z,10.31
2019-03-18T02:27:33.829Z,10.29
2019-03-18T02:28:41.947Z,10.25
2019-03-18T02:29:49.737Z,10.08
2019-03-18T02:30:57.661Z,10.13
2019-03-18T02:32:05.972Z,10.03
2019-03-18T02:33:13.930Z,10.09
2019-03-18T02:34:22.178Z,10.16
2019-03-18T02:35:30.449Z,10.01
2019-03-18T02:36:38.593Z,10.02
2019-03-18T02:37:46.514Z,10.08
2019-03-18T02:38:54.503Z,10.16
2019-03-18T02:40:02.655Z,9.99
2019-03-18T02:41:10.734Z,9.81
2019-03-18T02:42:18.957Z,9.72
2019-03-18T02:43:27.380Z,9.71
2019-03-18T02:44:35.453Z,9.47
2019-03-18T02:45:43.281Z,9.26
2019-03-18T02:46:51.568Z,9.14
2019-03-18T02:47:59.777Z,9.06
2019-03-18T02:49:07.965Z,8.94
2019-03-18T02:50:16.384Z,8.80
2019-03-18T02:51:24.780Z,8.80
2019-03-18T02:52:32.872Z,8.76
2019-03-18T02:53:40.953Z,8.71
2019-03-18T02:54:49.150Z,8.77
2019-03-18T02:55:57.192Z,8.84
2019-03-18T02:57:05.116Z,8.77
2019-03-18T02:58:13.346Z,8.83
2019-03-18T02:59:21.733Z,8.87
2019-03-18T03:00:29.806Z,8.86
2019-03-18T03:01:37.718Z,8.86
2019-03-18T03:02:45.930Z,8.87
2019-03-18T03:03:53.724Z,8.90
2019-03-18T03:05:01.708Z,8.93
2019-03-18T03:06:09.827Z,8.92
2019-03-18T03:07:17.872Z,8.99
2019-03-18T03:08:26.154Z,9.07
2019-03-18T03:09:34.221Z,9.08
2019-03-18T03:10:42.304Z,9.13
2019-03-18T03:11:50.518Z,9.19
2019-03-18T03:12:58.694Z,9.19
2019-03-18T03:14:06.740Z,8.93
2019-03-18T03:15:15.723Z,8.90
2019-03-18T03:16:27.164Z,8.98
2019-03-18T03:17:33.248Z,9.06
2019-03-18T03:18:41.158Z,9.10
2019-03-18T03:19:49.370Z,9.14
2019-03-18T03:20:57.449Z,9.06
2019-03-18T03:22:05.373Z,9.11
2019-03-18T03:23:13.362Z,9.06
2019-03-18T03:24:21.859Z,9.04
2019-03-18T03:25:30.020Z,8.99
2019-03-18T03:26:38.044Z,9.06
2019-03-18T03:27:46.229Z,8.94
2019-03-18T03:28:54.815Z,8.93
2019-03-18T03:30:02.667Z,8.87
2019-03-18T03:31:10.696Z,8.68
2019-03-18T03:32:18.718Z,8.69
2019-03-18T03:33:26.819Z,8.74
2019-03-18T03:34:34.960Z,8.71
2019-03-18T03:35:42.882Z,8.71
2019-03-18T03:36:51.397Z,8.68
2019-03-18T03:38:00.015Z,8.64
2019-03-18T03:39:08.657Z,8.53
2019-03-18T03:40:16.754Z,8.61
2019-03-18T03:41:24.553Z,8.70
2019-03-18T03:42:33.197Z,8.61
2019-03-18T03:43:42.011Z,8.65
2019-03-18T03:44:50.369Z,8.56
2019-03-18T03:45:58.487Z,8.66
2019-03-18T03:47:06.533Z,8.68
2019-03-18T03:48:14.659Z,8.75
2019-03-18T03:49:22.701Z,8.66
2019-03-18T03:50:30.609Z,8.63
2019-03-18T03:51:38.914Z,8.47
2019-03-18T03:52:47.162Z,8.35
2019-03-18T03:53:55.457Z,8.39
2019-03-18T03:55:03.948Z,8.45
2019-03-18T03:56:12.069Z,8.34
2019-03-18T03:57:20.257Z,8.14
2019-03-18T03:58:28.160Z,8.08
2019-03-18T03:59:37.157Z,8.03
2019-03-18T04:00:45.433Z,8.11
2019-03-18T04:01:53.734Z,8.08
2019-03-18T04:03:01.723Z,8.08
2019-03-18T04:04:09.945Z,8.20
2019-03-18T04:05:18.126Z,8.05
2019-03-18T04:06:26.431Z,7.81
2019-03-18T04:07:34.529Z,7.79
2019-03-18T04:08:43.673Z,7.85
2019-03-18T04:09:52.034Z,7.92
2019-03-18T04:11:00.365Z,7.97
2019-03-18T04:12:08.311Z,7.94
2019-03-18T04:13:16.413Z,7.90
2019-03-18T04:14:24.619Z,7.98
2019-03-18T04:15:32.732Z,7.86
2019-03-18T04:16:43.981Z,7.82
2019-03-18T04:17:50.775Z,7.62
2019-03-18T04:18:58.933Z,7.61
2019-03-18T04:20:11.492Z,7.59
2019-03-18T04:21:19.813Z,7.62
2019-03-18T04:22:28.092Z,7.58
2019-03-18T04:23:36.715Z,7.59
2019-03-18T04:24:44.801Z,7.60
2019-03-18T04:25:53.000Z,7.59
2019-03-18T04:27:01.201Z,7.67
2019-03-18T04:28:09.299Z,7.68
2019-03-18T04:29:17.720Z,7.71
2019-03-18T04:30:26.009Z,7.85
2019-03-18T04:31:33.994Z,7.80
2019-03-18T04:32:42.194Z,7.86
2019-03-18T04:33:50.391Z,7.79
2019-03-18T04:34:58.466Z,7.64
2019-03-18T04:36:06.382Z,7.58
2019-03-18T04:37:14.479Z,7.62
2019-03-18T04:38:22.886Z,7.54
2019-03-18T04:39:30.930Z,7.44
2019-03-18T04:40:39.614Z,7.49
2019-03-18T04:41:47.581Z,7.56
2019-03-18T04:42:55.810Z,7.62
2019-03-18T04:44:03.969Z,7.61
2019-03-18T04:45:12.476Z,7.55
2019-03-18T04:46:20.731Z,7.59
2019-03-18T04:47:28.757Z,7.51
2019-03-18T04:48:36.930Z,7.55
2019-03-18T04:49:45.270Z,7.56
2019-03-18T04:50:53.381Z,7.51
2019-03-18T04:52:01.474Z,7.54
2019-03-18T04:53:09.498Z,7.49
2019-03-18T04:54:17.710Z,7.54
2019-03-18T04:55:25.818Z,7.47
2019-03-18T04:56:33.756Z,7.44
2019-03-18T04:57:41.984Z,7.46
2019-03-18T04:58:50.079Z,7.47
2019-03-18T04:59:58.203Z,7.49
2019-03-18T05:01:06.272Z,7.46
2019-03-18T05:02:16.628Z,7.56
2019-03-18T05:03:24.490Z,7.60
2019-03-18T05:04:32.552Z,7.51
2019-03-18T05:05:41.113Z,7.52
2019-03-18T05:06:49.194Z,7.52
2019-03-18T05:07:57.276Z,7.56
2019-03-18T05:09:06.763Z,7.53
2019-03-18T05:10:14.773Z,7.57
2019-03-18T05:11:22.966Z,7.45
2019-03-18T05:12:32.863Z,7.40
2019-03-18T05:13:41.791Z,7.17
2019-03-18T05:14:50.059Z,7.19
2019-03-18T05:15:58.039Z,7.29
2019-03-18T05:17:06.242Z,7.23
2019-03-18T05:18:14.217Z,7.15
2019-03-18T05:19:22.263Z,7.23
2019-03-18T05:20:30.494Z,7.27
2019-03-18T05:21:38.702Z,7.31
2019-03-18T05:22:47.060Z,7.36
2019-03-18T05:23:55.068Z,7.31
2019-03-18T05:25:03.052Z,7.17
2019-03-18T05:26:11.103Z,7.27
2019-03-18T05:27:19.186Z,7.27
2019-03-18T05:28:27.074Z,7.29
2019-03-18T05:29:35.090Z,7.12
2019-03-18T05:30:43.745Z,7.08
2019-03-18T05:31:51.918Z,7.21
2019-03-18T05:33:00.076Z,7.32
2019-03-18T05:34:08.141Z,7.20
2019-03-18T05:35:16.533Z,7.16
2019-03-18T05:36:24.605Z,7.14
2019-03-18T05:37:32.528Z,7.12
2019-03-18T05:38:40.799Z,7.10
2019-03-18T05:39:49.032Z,7.02
2019-03-18T05:40:56.939Z,7.10
2019-03-18T05:42:04.968Z,7.05
2019-03-18T05:43:13.427Z,7.06
2019-03-18T05:44:21.710Z,7.05
2019-03-18T05:45:29.951Z,6.98
2019-03-18T05:46:37.932Z,7.06
2019-03-18T05:47:46.167Z,7.00
2019-03-18T05:48:54.154Z,6.98
2019-03-18T05:50:02.195Z,6.99
2019-03-18T05:51:10.408Z,7.08
2019-03-18T05:52:18.243Z,7.10
2019-03-18T05:53:26.304Z,7.01
2019-03-18T05:54:34.141Z,7.07
2019-03-18T05:55:42.399Z,7.06
2019-03-18T05:56:50.405Z,7.04
2019-03-18T05:57:58.469Z,6.97
2019-03-18T05:59:06.732Z,6.95
2019-03-18T06:00:16.039Z,6.87
2019-03-18T06:01:24.415Z,7.03
2019-03-18T06:02:32.923Z,7.11
2019-03-18T06:03:41.296Z,7.09
2019-03-18T06:04:49.541Z,7.10
2019-03-18T06:05:57.794Z,7.01
2019-03-18T06:07:06.258Z,6.99
2019-03-18T06:08:14.780Z,7.06
2019-03-18T06:09:22.849Z,7.05
2019-03-18T06:10:31.514Z,7.06
2019-03-18T06:11:39.358Z,7.02
2019-03-18T06:12:47.563Z,7.07
2019-03-18T06:13:56.655Z,7.07
2019-03-18T06:15:07.143Z,7.03
2019-03-18T06:16:15.568Z,7.06
2019-03-18T06:17:23.902Z,7.00
2019-03-18T06:18:31.987Z,6.96
2019-03-18T06:19:40.448Z,7.05
2019-03-18T06:20:48.509Z,7.16
2019-03-18T06:21:57.014Z,7.15
2019-03-18T06:23:05.480Z,7.13
2019-03-18T06:24:13.869Z,7.18
2019-03-18T06:25:21.775Z,7.21
2019-03-18T06:26:30.629Z,7.28
2019-03-18T06:27:39.423Z,7.29
2019-03-18T06:28:47.786Z,7.19
2019-03-18T06:29:56.044Z,7.23
2019-03-18T06:31:04.518Z,7.30
2019-03-18T06:32:12.849Z,7.28
2019-03-18T06:33:21.151Z,7.28
2019-03-18T06:34:29.597Z,7.30
2019-03-18T06:35:37.889Z,7.28
2019-03-18T06:36:46.326Z,7.36
2019-03-18T06:37:54.489Z,7.26
2019-03-18T06:39:02.994Z,7.10
2019-03-18T06:40:16.224Z,7.11
2019-03-18T06:41:24.546Z,7.17
2019-03-18T06:42:32.651Z,7.18
2019-03-18T06:43:41.094Z,7.12
2019-03-18T06:44:49.394Z,7.23
2019-03-18T06:45:57.893Z,7.28
2019-03-18T06:47:06.345Z,7.31
2019-03-18T06:48:15.221Z,7.40
2019-03-18T06:49:23.252Z,7.48
2019-03-18T06:50:31.776Z,7.56
2019-03-18T06:51:40.401Z,7.55
2019-03-18T06:52:48.840Z,7.64
2019-03-18T06:53:57.061Z,7.56
2019-03-18T06:55:06.792Z,7.62
2019-03-18T06:56:15.193Z,7.69
2019-03-18T06:57:23.378Z,7.80
2019-03-18T06:58:31.776Z,7.79
2019-03-18T06:59:40.031Z,7.78
2019-03-18T07:00:48.276Z,7.71
2019-03-18T07:01:56.605Z,7.64
2019-03-18T07:03:05.552Z,7.62
2019-03-18T07:04:14.178Z,7.67
2019-03-18T07:05:22.553Z,7.62
2019-03-18T07:06:31.283Z,7.74
2019-03-18T07:07:39.486Z,7.81
2019-03-18T07:08:49.585Z,7.79
2019-03-18T07:09:57.846Z,7.78
2019-03-18T07:11:06.437Z,7.85
2019-03-18T07:12:14.692Z,7.83
2019-03-18T07:13:23.053Z,7.73
2019-03-18T07:14:31.810Z,7.81
2019-03-18T07:15:40.111Z,7.84
2019-03-18T07:16:48.727Z,7.89
2019-03-18T07:17:57.475Z,7.89
2019-03-18T07:19:05.807Z,7.99
2019-03-18T07:20:15.567Z,7.95
2019-03-18T07:21:23.885Z,7.96
2019-03-18T07:22:32.227Z,7.97
2019-03-18T07:23:40.333Z,8.00
2019-03-18T07:24:48.480Z,8.03
2019-03-18T07:25:56.932Z,7.97
2019-03-18T07:27:05.657Z,8.01
2019-03-18T07:28:14.061Z,8.04
2019-03-18T07:29:25.115Z,7.98
2019-03-18T07:30:33.410Z,8.02
2019-03-18T07:31:41.462Z,7.89
2019-03-18T07:32:50.075Z,7.94
2019-03-18T07:33:59.872Z,8.05
2019-03-18T07:35:08.578Z,8.04
2019-03-18T07:36:16.667Z,7.93
2019-03-18T07:37:24.761Z,7.94
2019-03-18T07:38:33.250Z,7.88
2019-03-18T07:39:41.403Z,7.85
2019-03-18T07:40:49.749Z,7.88
2019-03-18T07:41:58.096Z,7.91
2019-03-18T07:43:06.476Z,7.93
2019-03-18T07:44:15.358Z,7.94
2019-03-18T07:45:23.881Z,8.05
2019-03-18T07:46:32.542Z,8.13
2019-03-18T07:47:41.232Z,8.17
2019-03-18T07:48:49.603Z,8.21
2019-03-18T07:49:57.968Z,8.21
2019-03-18T07:51:06.551Z,8.26
2019-03-18T07:52:14.883Z,8.30
2019-03-18T07:53:23.371Z,8.37
2019-03-18T07:54:33.187Z,8.33
2019-03-18T07:55:41.481Z,8.32
2019-03-18T07:56:49.907Z,8.32
2019-03-18T07:57:58.272Z,8.33
2019-03-18T07:59:06.490Z,8.20
2019-03-18T08:00:16.248Z,8.24
2019-03-18T08:01:24.290Z,8.16
2019-03-18T08:02:32.666Z,8.00
2019-03-18T08:03:40.624Z,7.97
2019-03-18T08:04:48.862Z,7.99
2019-03-18T08:05:56.651Z,8.05
2019-03-18T08:07:05.082Z,8.05
2019-03-18T08:08:13.314Z,8.11
2019-03-18T08:09:21.550Z,8.12
2019-03-18T08:10:29.883Z,8.02
2019-03-18T08:11:38.716Z,8.03
2019-03-18T08:12:47.380Z,7.99
2019-03-18T08:13:56.197Z,8.03
2019-03-18T08:15:06.659Z,8.01
2019-03-18T08:16:15.061Z,8.05
2019-03-18T08:17:23.649Z,8.05
2019-03-18T08:18:42.770Z,8.09
2019-03-18T08:19:42.157Z,8.06
2019-03-18T08:20:50.506Z,8.02
2019-03-18T08:21:59.115Z,8.09
2019-03-18T08:23:07.140Z,8.09
2019-03-18T08:24:15.458Z,8.10
2019-03-18T08:25:23.615Z,8.15
2019-03-18T08:26:31.806Z,8.12
2019-03-18T08:27:40.412Z,8.11
2019-03-18T08:28:49.291Z,8.20
2019-03-18T08:29:58.052Z,8.14
2019-03-18T08:31:05.944Z,8.15
2019-03-18T08:32:14.139Z,8.12
2019-03-18T08:33:22.418Z,8.08
2019-03-18T08:34:30.733Z,8.11
2019-03-18T08:35:39.242Z,8.09
2019-03-18T08:36:47.348Z,8.07
2019-03-18T08:37:56.400Z,8.10
2019-03-18T08:39:06.092Z,8.15
2019-03-18T08:40:14.296Z,8.10
2019-03-18T08:41:22.484Z,8.14
2019-03-18T08:42:30.792Z,8.15
2019-03-18T08:43:38.900Z,8.19
2019-03-18T08:44:46.905Z,8.22
2019-03-18T08:45:55.494Z,8.24
2019-03-18T08:47:03.804Z,8.31
2019-03-18T08:48:11.897Z,8.16
2019-03-18T08:49:19.918Z,8.21
2019-03-18T08:50:28.032Z,8.26
2019-03-18T08:51:36.289Z,8.31
2019-03-18T08:52:44.284Z,8.33
2019-03-18T08:53:53.409Z,8.29
2019-03-18T08:55:01.527Z,8.40
2019-03-18T08:56:09.430Z,8.39
2019-03-18T08:57:17.895Z,8.28
2019-03-18T08:58:25.940Z,8.34
2019-03-18T08:59:34.199Z,8.33
2019-03-18T09:00:42.297Z,8.23
2019-03-18T09:01:50.545Z,8.21
2019-03-18T09:02:58.667Z,8.28
2019-03-18T09:04:06.995Z,8.26
2019-03-18T09:05:15.491Z,8.27
2019-03-18T09:06:23.529Z,8.28
2019-03-18T09:07:31.684Z,8.33
2019-03-18T09:08:39.884Z,8.38
2019-03-18T09:09:47.971Z,8.39
2019-03-18T09:10:56.897Z,8.34
2019-03-18T09:12:05.315Z,8.39
2019-03-18T09:13:13.314Z,8.43
2019-03-18T09:14:21.386Z,8.42
2019-03-18T09:15:29.417Z,8.37
2019-03-18T09:16:37.713Z,8.39
2019-03-18T09:17:45.752Z,8.42
2019-03-18T09:18:54.115Z,8.50
2019-03-18T09:20:02.206Z,8.50
2019-03-18T09:21:10.204Z,8.44
2019-03-18T09:22:18.293Z,8.43
2019-03-18T09:23:27.633Z,8.46
2019-03-18T09:24:35.888Z,8.45
2019-03-18T09:25:44.184Z,8.48
2019-03-18T09:27:01.894Z,8.41
2019-03-18T09:28:01.979Z,8.30
2019-03-18T09:29:10.310Z,8.37
2019-03-18T09:30:20.007Z,8.39
2019-03-18T09:31:28.383Z,8.40
2019-03-18T09:32:36.556Z,8.47
2019-03-18T09:33:44.450Z,8.49
2019-03-18T09:34:54.672Z,8.61
2019-03-18T09:36:02.435Z,8.66
2019-03-18T09:37:10.637Z,8.80
2019-03-18T09:38:18.817Z,8.84
2019-03-18T09:39:26.972Z,8.79
2019-03-18T09:40:35.258Z,8.71
2019-03-18T09:41:43.529Z,8.67
2019-03-18T09:42:51.741Z,8.69
2019-03-18T09:44:00.207Z,8.58
2019-03-18T09:45:12.622Z,8.63
2019-03-18T09:46:20.708Z,8.61
2019-03-18T09:47:28.858Z,8.54
2019-03-18T09:48:36.841Z,8.56
2019-03-18T09:49:45.227Z,8.47
2019-03-18T09:50:53.393Z,8.50
2019-03-18T09:52:01.224Z,8.50
2019-03-18T09:53:11.059Z,8.58
2019-03-18T09:54:19.509Z,8.60
2019-03-18T09:55:27.497Z,8.58
2019-03-18T09:56:35.847Z,8.62
2019-03-18T09:57:43.953Z,8.59
2019-03-18T09:58:52.178Z,8.66
2019-03-18T10:00:00.491Z,8.63
2019-03-18T10:01:08.359Z,8.66
2019-03-18T10:02:16.718Z,8.63
2019-03-18T10:03:24.914Z,8.63
2019-03-18T10:04:32.832Z,8.69
2019-03-18T10:05:43.860Z,8.68
2019-03-18T10:06:50.935Z,8.69
2019-03-18T10:07:59.165Z,8.63
2019-03-18T10:09:08.901Z,8.72
2019-03-18T10:10:17.079Z,8.72
2019-03-18T10:11:25.058Z,8.60
2019-03-18T10:12:33.008Z,8.61
2019-03-18T10:13:40.935Z,8.56
2019-03-18T10:14:48.984Z,8.60
2019-03-18T10:15:57.229Z,8.61
2019-03-18T10:17:09.999Z,8.61
2019-03-18T10:18:15.013Z,8.61
2019-03-18T10:19:33.027Z,8.47
2019-03-18T10:20:32.650Z,8.45
2019-03-18T10:21:40.683Z,8.49
2019-03-18T10:22:48.920Z,8.52
2019-03-18T10:23:57.038Z,8.45
2019-03-18T10:25:07.043Z,8.43
2019-03-18T10:26:15.225Z,8.33
2019-03-18T10:27:23.321Z,8.34
2019-03-18T10:28:31.224Z,8.45
2019-03-18T10:29:39.161Z,8.53
2019-03-18T10:30:47.437Z,8.67
2019-03-18T10:31:55.310Z,8.78
2019-03-18T10:33:03.618Z,8.84
2019-03-18T10:34:11.745Z,8.91
2019-03-18T10:35:20.828Z,8.88
2019-03-18T10:36:29.448Z,8.86
2019-03-18T10:37:37.570Z,8.88
2019-03-18T10:38:45.720Z,9.05
2019-03-18T10:39:53.953Z,9.09
2019-03-18T10:41:01.949Z,9.22
2019-03-18T10:42:09.947Z,9.28
2019-03-18T10:43:17.994Z,9.34
2019-03-18T10:44:27.234Z,9.38
2019-03-18T10:45:35.565Z,9.46
2019-03-18T10:46:43.557Z,9.39
2019-03-18T10:47:51.665Z,9.36
2019-03-18T10:49:00.228Z,9.25
2019-03-18T10:50:13.043Z,9.16
2019-03-18T10:51:21.316Z,9.17
2019-03-18T10:52:29.285Z,9.29
2019-03-18T10:53:37.389Z,9.25
2019-03-18T10:54:45.671Z,9.13
2019-03-18T10:55:54.054Z,9.13
2019-03-18T10:57:02.183Z,9.17
2019-03-18T10:58:10.465Z,9.13
2019-03-18T10:59:18.661Z,9.19
2019-03-18T11:00:26.997Z,9.13
2019-03-18T11:01:35.285Z,9.11
2019-03-18T11:02:44.945Z,9.14
2019-03-18T11:03:52.996Z,9.16
2019-03-18T11:05:01.099Z,9.19
2019-03-18T11:06:09.595Z,9.11
2019-03-18T11:07:17.763Z,9.17
2019-03-18T11:08:25.891Z,9.22
2019-03-18T11:09:33.998Z,9.15
2019-03-18T11:10:41.844Z,9.10
2019-03-18T11:11:49.938Z,9.14
2019-03-18T11:12:57.874Z,9.22
2019-03-18T11:14:06.012Z,9.30
2019-03-18T11:15:17.830Z,9.28
2019-03-18T11:16:26.060Z,9.36
2019-03-18T11:17:34.119Z,9.29
2019-03-18T11:18:42.464Z,9.28
2019-03-18T11:19:58.283Z,9.23
2019-03-18T11:21:00.695Z,9.22
2019-03-18T11:22:08.804Z,9.15
2019-03-18T11:23:16.744Z,9.21
2019-03-18T11:24:24.667Z,9.19
2019-03-18T11:25:32.952Z,9.22
2019-03-18T11:26:40.836Z,9.25
2019-03-18T11:27:48.986Z,9.30
2019-03-18T11:28:56.962Z,9.35
2019-03-18T11:30:07.248Z,9.42
2019-03-18T11:31:15.354Z,9.37
2019-03-18T11:32:23.435Z,9.29
2019-03-18T11:33:31.446Z,9.22
2019-03-18T11:34:39.453Z,9.13
2019-03-18T11:35:47.790Z,9.16
2019-03-18T11:36:55.810Z,9.18
2019-03-18T11:38:03.985Z,9.17
2019-03-18T11:39:12.306Z,9.11
2019-03-18T11:40:23.444Z,9.08
2019-03-18T11:41:31.413Z,9.04
2019-03-18T11:42:39.658Z,8.92
2019-03-18T11:43:48.053Z,9.00
2019-03-18T11:44:56.246Z,9.09
2019-03-18T11:46:04.292Z,9.04
2019-03-18T11:47:12.376Z,9.02
2019-03-18T11:48:20.431Z,9.04
2019-03-18T11:49:39.050Z,9.09
2019-03-18T11:50:41.271Z,9.12
2019-03-18T11:51:48.111Z,9.04
2019-03-18T11:52:56.145Z,9.01
2019-03-18T11:54:04.541Z,9.03
2019-03-18T11:55:21.969Z,8.96
2019-03-18T11:56:30.174Z,8.99
2019-03-18T11:57:38.439Z,9.11
2019-03-18T11:58:46.464Z,9.13
2019-03-18T11:59:54.461Z,9.10
2019-03-18T12:01:02.733Z,9.00
2019-03-18T12:02:10.929Z,8.99
2019-03-18T12:03:18.851Z,9.03
2019-03-18T12:04:26.734Z,9.11
2019-03-18T12:05:34.724Z,9.06
2019-03-18T12:06:43.111Z,9.11
2019-03-18T12:07:51.132Z,9.06
2019-03-18T12:08:59.307Z,9.03
2019-03-18T12:10:14.621Z,9.15
2019-03-18T12:11:22.562Z,9.20
2019-03-18T12:12:30.652Z,9.26
2019-03-18T12:13:39.093Z,9.13
2019-03-18T12:14:47.101Z,9.17
2019-03-18T12:15:55.018Z,9.10
2019-03-18T12:17:03.031Z,9.17
2019-03-18T12:18:11.127Z,9.13
2019-03-18T12:19:19.327Z,9.17
2019-03-18T12:20:27.570Z,9.17
2019-03-18T12:21:35.564Z,9.16
2019-03-18T12:22:44.135Z,9.26
2019-03-18T12:23:52.533Z,9.32
2019-03-18T12:25:00.763Z,9.39
2019-03-18T12:26:08.976Z,9.47
2019-03-18T12:27:17.075Z,9.60
2019-03-18T12:28:26.231Z,9.63
2019-03-18T12:29:34.469Z,9.63
2019-03-18T12:30:43.122Z,9.68
2019-03-18T12:31:51.073Z,9.74
2019-03-18T12:32:58.889Z,9.81
2019-03-18T12:34:13.442Z,9.84
2019-03-18T12:35:24.177Z,9.77
2019-03-18T12:36:32.359Z,9.71
2019-03-18T12:37:40.542Z,9.63
2019-03-18T12:38:48.664Z,9.64
2019-03-18T12:39:56.874Z,9.72
2019-03-18T12:41:05.248Z,9.64
2019-03-18T12:42:13.931Z,9.65
2019-03-18T12:43:21.876Z,9.64
2019-03-18T12:44:30.174Z,9.65
2019-03-18T12:45:38.263Z,9.70
2019-03-18T12:46:46.262Z,9.76
2019-03-18T12:47:54.381Z,9.77
2019-03-18T12:49:02.826Z,9.71
2019-03-18T12:50:17.307Z,9.65
2019-03-18T12:51:25.433Z,9.52
2019-03-18T12:52:33.600Z,9.46
2019-03-18T12:53:41.902Z,9.56
2019-03-18T12:54:49.919Z,9.50
2019-03-18T12:55:57.830Z,9.55
2019-03-18T12:57:06.084Z,9.52
2019-03-18T12:58:14.145Z,9.51
2019-03-18T12:59:22.404Z,9.47
2019-03-18T13:00:39.152Z,9.50
2019-03-18T13:01:47.379Z,9.57
2019-03-18T13:02:55.598Z,9.63
2019-03-18T13:04:04.329Z,9.66
2019-03-18T13:05:12.798Z,9.77
2019-03-18T13:06:20.840Z,9.74
2019-03-18T13:07:28.789Z,9.77
2019-03-18T13:08:36.710Z,9.87
2019-03-18T13:09:44.833Z,9.77
2019-03-18T13:10:53.336Z,9.72
2019-03-18T13:12:01.323Z,9.71
2019-03-18T13:13:09.371Z,9.67
2019-03-18T13:14:17.291Z,9.72
2019-03-18T13:15:25.619Z,9.80
2019-03-18T13:16:33.906Z,9.81
2019-03-18T13:17:43.853Z,9.82
2019-03-18T13:18:51.792Z,9.82
2019-03-18T13:20:00.008Z,9.90
2019-03-18T13:21:08.565Z,9.84
2019-03-18T13:22:16.551Z,9.75
2019-03-18T13:23:24.873Z,9.81
2019-03-18T13:24:32.933Z,9.85
2019-03-18T13:25:42.092Z,9.85
2019-03-18T13:26:50.348Z,9.91
2019-03-18T13:27:58.450Z,9.88
2019-03-18T13:29:06.781Z,9.82
2019-03-18T13:30:17.860Z,9.80
2019-03-18T13:31:25.881Z,9.76
2019-03-18T13:32:33.937Z,9.85
2019-03-18T13:33:42.241Z,9.94
2019-03-18T13:34:50.415Z,10.02
2019-03-18T13:35:58.402Z,10.17
2019-03-18T13:37:06.841Z,10.08
2019-03-18T13:38:14.803Z,10.04
2019-03-18T13:39:23.361Z,10.12
2019-03-18T13:40:31.352Z,10.26
2019-03-18T13:41:39.676Z,10.30
2019-03-18T13:42:48.073Z,10.31
2019-03-18T13:43:56.083Z,10.35
2019-03-18T13:45:05.111Z,10.38
2019-03-18T13:46:13.299Z,10.49
2019-03-18T13:47:21.338Z,10.53
2019-03-18T13:48:29.545Z,10.39
2019-03-18T13:49:37.793Z,10.32
2019-03-18T13:50:45.844Z,10.29
2019-03-18T13:51:54.052Z,10.24
2019-03-18T13:53:02.355Z,10.30
2019-03-18T13:54:10.407Z,10.33
2019-03-18T13:55:18.609Z,10.38
2019-03-18T13:56:26.703Z,10.32
2019-03-18T13:57:35.090Z,10.32
2019-03-18T13:58:43.190Z,10.14
2019-03-18T13:59:51.332Z,10.12
2019-03-18T14:00:59.799Z,10.11
2019-03-18T14:02:08.286Z,10.08
2019-03-18T14:03:16.771Z,10.10
2019-03-18T14:04:25.028Z,10.21
2019-03-18T14:05:33.159Z,10.41
2019-03-18T14:06:41.340Z,10.63
2019-03-18T14:07:59.481Z,10.69
2019-03-18T14:08:59.161Z,10.76
2019-03-18T14:10:20.066Z,10.74
2019-03-18T14:11:28.621Z,10.72
2019-03-18T14:12:37.260Z,10.80
2019-03-18T14:13:46.776Z,10.83
2019-03-18T14:14:54.984Z,10.89
2019-03-18T14:16:03.221Z,10.83
2019-03-18T14:17:11.336Z,10.80
2019-03-18T14:18:19.416Z,10.73
2019-03-18T14:19:27.678Z,10.78
2019-03-18T14:20:35.859Z,10.82
2019-03-18T14:21:43.843Z,10.71
2019-03-18T14:22:52.147Z,10.79
2019-03-18T14:24:00.496Z,10.76
2019-03-18T14:25:10.862Z,10.68
2019-03-18T14:26:19.285Z,10.67
2019-03-18T14:27:27.531Z,10.68
2019-03-18T14:28:35.842Z,10.63
2019-03-18T14:29:44.249Z,10.49
2019-03-18T14:30:52.514Z,10.46
2019-03-18T14:32:01.001Z,10.57
2019-03-18T14:33:08.923Z,10.60
2019-03-18T14:34:17.144Z,10.56
2019-03-18T14:35:25.555Z,10.36
2019-03-18T14:36:33.662Z,10.45
2019-03-18T14:37:42.049Z,10.56
2019-03-18T14:38:50.332Z,10.63
2019-03-18T14:39:58.237Z,10.70
2019-03-18T14:41:06.847Z,10.59
2019-03-18T14:42:15.265Z,10.61
2019-03-18T14:43:23.229Z,10.55
2019-03-18T14:44:31.650Z,10.65
2019-03-18T14:45:39.524Z,10.73
2019-03-18T14:46:47.680Z,10.76
2019-03-18T14:47:55.793Z,10.69
2019-03-18T14:49:03.947Z,10.67
2019-03-18T14:50:14.148Z,10.68
2019-03-18T14:51:22.185Z,10.65
2019-03-18T14:52:30.014Z,10.61
2019-03-18T14:53:38.162Z,10.68
2019-03-18T14:54:46.038Z,10.60
2019-03-18T14:55:54.100Z,10.58
2019-03-18T14:57:02.661Z,10.68
2019-03-18T14:58:10.673Z,10.63
2019-03-18T14:59:19.075Z,10.62
2019-03-18T15:00:30.959Z,10.58
2019-03-18T15:01:39.302Z,10.50
2019-03-18T15:02:47.742Z,10.53